sensor_id;sensor_type;location;lat;lon;timestamp;P1;durP1;ratioP1;P2;durP2;ratioP2
18042;SDS011;9146;48.074;11.968;2022-09-27T00:01:33;3.20;;;2.87;;
18042;SDS011;9146;48.074;11.968;2022-09-27T00:04:02;3.00;;;2.77;;
18042;SDS011;9146;48.074;11.968;2022-09-27T00:06:30;3.23;;;2.90;;
18042;SDS011;9146;48.074;11.968;2022-09-27T00:08:58;3.07;;;2.87;;
18042;SDS011;9146;48.074;11.968;2022-09-27T00:11:26;2.80;;;2.60;;
18042;SDS011;9146;48.074;11.968;2022-09-27T00:13:55;3.57;;;3.27;;
18042;SDS011;9146;48.074;11.968;2022-09-27T00:16:23;2.50;;;2.30;;
18042;SDS011;9146;48.074;11.968;2022-09-27T00:18:52;2.60;;;2.40;;
18042;SDS011;9146;48.074;11.968;2022-09-27T00:21:20;4.70;;;2.47;;
18042;SDS011;9146;48.074;11.968;2022-09-27T00:23:47;2.90;;;2.33;;
18042;SDS011;9146;48.074;11.968;2022-09-27T00:26:14;2.90;;;2.70;;
18042;SDS011;9146;48.074;11.968;2022-09-27T00:28:41;3.30;;;3.00;;
18042;SDS011;9146;48.074;11.968;2022-09-27T00:31:13;2.50;;;2.30;;
18042;SDS011;9146;48.074;11.968;2022-09-27T00:33:45;2.40;;;2.20;;
18042;SDS011;9146;48.074;11.968;2022-09-27T00:36:12;2.40;;;2.30;;
18042;SDS011;9146;48.074;11.968;2022-09-27T00:38:41;2.50;;;2.30;;
18042;SDS011;9146;48.074;11.968;2022-09-27T00:41:10;2.77;;;2.57;;
18042;SDS011;9146;48.074;11.968;2022-09-27T00:43:44;2.67;;;2.47;;
18042;SDS011;9146;48.074;11.968;2022-09-27T00:46:14;5.20;;;2.43;;
18042;SDS011;9146;48.074;11.968;2022-09-27T00:48:45;2.67;;;2.47;;
18042;SDS011;9146;48.074;11.968;2022-09-27T00:51:13;3.03;;;2.50;;
18042;SDS011;9146;48.074;11.968;2022-09-27T00:53:44;2.63;;;2.43;;
18042;SDS011;9146;48.074;11.968;2022-09-27T00:56:17;2.63;;;2.43;;
18042;SDS011;9146;48.074;11.968;2022-09-27T00:58:48;2.30;;;2.20;;
18042;SDS011;9146;48.074;11.968;2022-09-27T01:01:19;2.53;;;2.33;;
18042;SDS011;9146;48.074;11.968;2022-09-27T01:03:48;4.37;;;2.90;;
18042;SDS011;9146;48.074;11.968;2022-09-27T01:06:19;3.13;;;2.60;;
18042;SDS011;9146;48.074;11.968;2022-09-27T01:08:49;3.30;;;2.50;;
18042;SDS011;9146;48.074;11.968;2022-09-27T01:11:18;2.33;;;2.13;;
18042;SDS011;9146;48.074;11.968;2022-09-27T01:14:00;2.00;;;1.90;;
18042;SDS011;9146;48.074;11.968;2022-09-27T01:16:39;2.90;;;2.70;;
18042;SDS011;9146;48.074;11.968;2022-09-27T01:19:15;4.13;;;2.50;;
18042;SDS011;9146;48.074;11.968;2022-09-27T01:21:59;2.93;;;2.60;;
18042;SDS011;9146;48.074;11.968;2022-09-27T01:30:23;3.60;;;3.17;;
18042;SDS011;9146;48.074;11.968;2022-09-27T01:32:54;3.60;;;3.17;;
18042;SDS011;9146;48.074;11.968;2022-09-27T01:35:37;5.47;;;2.57;;
18042;SDS011;9146;48.074;11.968;2022-09-27T01:38:14;3.07;;;2.83;;
18042;SDS011;9146;48.074;11.968;2022-09-27T01:40:49;3.83;;;3.40;;
18042;SDS011;9146;48.074;11.968;2022-09-27T01:43:22;3.43;;;3.13;;
18042;SDS011;9146;48.074;11.968;2022-09-27T01:45:55;3.53;;;2.73;;
18042;SDS011;9146;48.074;11.968;2022-09-27T01:48:27;3.50;;;3.20;;
18042;SDS011;9146;48.074;11.968;2022-09-27T01:50:58;4.70;;;4.30;;
18042;SDS011;9146;48.074;11.968;2022-09-27T01:53:31;6.00;;;3.90;;
18042;SDS011;9146;48.074;11.968;2022-09-27T01:56:02;4.07;;;3.63;;
18042;SDS011;9146;48.074;11.968;2022-09-27T01:58:36;5.67;;;3.73;;
18042;SDS011;9146;48.074;11.968;2022-09-27T02:01:11;4.60;;;4.20;;
18042;SDS011;9146;48.074;11.968;2022-09-27T02:03:40;5.80;;;3.80;;
18042;SDS011;9146;48.074;11.968;2022-09-27T02:06:13;5.77;;;4.10;;
18042;SDS011;9146;48.074;11.968;2022-09-27T02:08:44;5.40;;;4.07;;
18042;SDS011;9146;48.074;11.968;2022-09-27T02:11:16;4.60;;;3.97;;
18042;SDS011;9146;48.074;11.968;2022-09-27T02:13:44;5.50;;;4.90;;
18042;SDS011;9146;48.074;11.968;2022-09-27T02:16:21;4.27;;;3.87;;
18042;SDS011;9146;48.074;11.968;2022-09-27T02:19:00;4.60;;;4.20;;
18042;SDS011;9146;48.074;11.968;2022-09-27T02:21:36;4.70;;;4.17;;
18042;SDS011;9146;48.074;11.968;2022-09-27T02:24:09;7.50;;;4.37;;
18042;SDS011;9146;48.074;11.968;2022-09-27T02:26:40;5.30;;;4.50;;
18042;SDS011;9146;48.074;11.968;2022-09-27T02:29:11;5.30;;;4.80;;
18042;SDS011;9146;48.074;11.968;2022-09-27T02:31:44;5.47;;;4.50;;
18042;SDS011;9146;48.074;11.968;2022-09-27T02:34:13;4.77;;;4.07;;
18042;SDS011;9146;48.074;11.968;2022-09-27T02:36:43;6.40;;;4.63;;
18042;SDS011;9146;48.074;11.968;2022-09-27T02:39:10;6.33;;;5.10;;
18042;SDS011;9146;48.074;11.968;2022-09-27T02:41:37;4.83;;;4.10;;
18042;SDS011;9146;48.074;11.968;2022-09-27T02:44:05;4.83;;;3.77;;
18042;SDS011;9146;48.074;11.968;2022-09-27T02:46:44;5.00;;;4.30;;
18042;SDS011;9146;48.074;11.968;2022-09-27T02:49:35;4.97;;;4.47;;
18042;SDS011;9146;48.074;11.968;2022-09-27T02:52:12;3.80;;;3.50;;
18042;SDS011;9146;48.074;11.968;2022-09-27T02:54:51;5.03;;;4.13;;
18042;SDS011;9146;48.074;11.968;2022-09-27T02:57:32;4.67;;;3.80;;
18042;SDS011;9146;48.074;11.968;2022-09-27T03:00:07;5.40;;;4.90;;
18042;SDS011;9146;48.074;11.968;2022-09-27T03:02:40;4.43;;;4.00;;
18042;SDS011;9146;48.074;11.968;2022-09-27T03:05:16;8.07;;;5.73;;
18042;SDS011;9146;48.074;11.968;2022-09-27T03:07:47;9.17;;;6.60;;
18042;SDS011;9146;48.074;11.968;2022-09-27T03:10:15;10.70;;;7.50;;
18042;SDS011;9146;48.074;11.968;2022-09-27T03:12:43;9.87;;;6.80;;
18042;SDS011;9146;48.074;11.968;2022-09-27T03:15:11;5.57;;;4.90;;
18042;SDS011;9146;48.074;11.968;2022-09-27T03:17:39;5.00;;;4.00;;
18042;SDS011;9146;48.074;11.968;2022-09-27T03:20:06;7.23;;;4.73;;
18042;SDS011;9146;48.074;11.968;2022-09-27T03:22:34;11.13;;;4.80;;
18042;SDS011;9146;48.074;11.968;2022-09-27T03:25:02;17.30;;;9.03;;
18042;SDS011;9146;48.074;11.968;2022-09-27T03:27:30;19.20;;;10.00;;
18042;SDS011;9146;48.074;11.968;2022-09-27T03:29:57;12.17;;;6.93;;
18042;SDS011;9146;48.074;11.968;2022-09-27T03:32:24;8.83;;;6.57;;
18042;SDS011;9146;48.074;11.968;2022-09-27T03:34:52;9.97;;;6.43;;
18042;SDS011;9146;48.074;11.968;2022-09-27T03:37:20;20.50;;;10.67;;
18042;SDS011;9146;48.074;11.968;2022-09-27T03:39:47;26.07;;;13.40;;
18042;SDS011;9146;48.074;11.968;2022-09-27T03:42:14;25.27;;;12.70;;
18042;SDS011;9146;48.074;11.968;2022-09-27T03:44:41;18.03;;;9.50;;
18042;SDS011;9146;48.074;11.968;2022-09-27T03:47:08;9.47;;;6.33;;
18042;SDS011;9146;48.074;11.968;2022-09-27T03:49:35;7.30;;;5.00;;
18042;SDS011;9146;48.074;11.968;2022-09-27T03:52:03;6.60;;;5.00;;
18042;SDS011;9146;48.074;11.968;2022-09-27T03:54:30;4.13;;;3.83;;
18042;SDS011;9146;48.074;11.968;2022-09-27T03:56:57;5.30;;;4.40;;
18042;SDS011;9146;48.074;11.968;2022-09-27T03:59:24;5.67;;;4.73;;
18042;SDS011;9146;48.074;11.968;2022-09-27T04:01:51;5.37;;;4.70;;
18042;SDS011;9146;48.074;11.968;2022-09-27T04:04:18;6.00;;;5.10;;
18042;SDS011;9146;48.074;11.968;2022-09-27T04:06:45;4.87;;;3.80;;
18042;SDS011;9146;48.074;11.968;2022-09-27T04:09:15;5.73;;;3.83;;
18042;SDS011;9146;48.074;11.968;2022-09-27T04:11:42;4.50;;;4.10;;
18042;SDS011;9146;48.074;11.968;2022-09-27T04:14:09;4.23;;;3.83;;
18042;SDS011;9146;48.074;11.968;2022-09-27T04:16:37;6.87;;;4.07;;
18042;SDS011;9146;48.074;11.968;2022-09-27T04:19:04;5.90;;;4.40;;
18042;SDS011;9146;48.074;11.968;2022-09-27T04:21:31;6.30;;;4.30;;
18042;SDS011;9146;48.074;11.968;2022-09-27T04:23:58;5.60;;;4.63;;
18042;SDS011;9146;48.074;11.968;2022-09-27T04:26:26;5.90;;;5.10;;
18042;SDS011;9146;48.074;11.968;2022-09-27T04:28:53;7.23;;;5.30;;
18042;SDS011;9146;48.074;11.968;2022-09-27T04:31:20;9.50;;;4.33;;
18042;SDS011;9146;48.074;11.968;2022-09-27T04:33:48;4.80;;;4.40;;
18042;SDS011;9146;48.074;11.968;2022-09-27T04:36:16;4.87;;;4.17;;
18042;SDS011;9146;48.074;11.968;2022-09-27T04:38:53;4.47;;;4.07;;
18042;SDS011;9146;48.074;11.968;2022-09-27T04:41:21;5.50;;;4.90;;
18042;SDS011;9146;48.074;11.968;2022-09-27T04:43:50;4.27;;;3.47;;
18042;SDS011;9146;48.074;11.968;2022-09-27T04:46:18;4.67;;;3.60;;
18042;SDS011;9146;48.074;11.968;2022-09-27T04:48:45;6.10;;;4.43;;
18042;SDS011;9146;48.074;11.968;2022-09-27T04:51:13;5.90;;;4.53;;
18042;SDS011;9146;48.074;11.968;2022-09-27T04:53:41;5.00;;;4.50;;
18042;SDS011;9146;48.074;11.968;2022-09-27T04:56:08;3.97;;;3.43;;
18042;SDS011;9146;48.074;11.968;2022-09-27T04:58:36;4.40;;;4.00;;
18042;SDS011;9146;48.074;11.968;2022-09-27T05:01:05;4.80;;;4.40;;
18042;SDS011;9146;48.074;11.968;2022-09-27T05:03:33;4.53;;;4.13;;
18042;SDS011;9146;48.074;11.968;2022-09-27T05:06:00;6.07;;;4.67;;
18042;SDS011;9146;48.074;11.968;2022-09-27T05:08:27;5.23;;;4.70;;
18042;SDS011;9146;48.074;11.968;2022-09-27T05:10:54;7.07;;;4.30;;
18042;SDS011;9146;48.074;11.968;2022-09-27T05:13:21;7.10;;;4.67;;
18042;SDS011;9146;48.074;11.968;2022-09-27T05:15:48;6.80;;;5.60;;
18042;SDS011;9146;48.074;11.968;2022-09-27T05:18:17;4.97;;;4.47;;
18042;SDS011;9146;48.074;11.968;2022-09-27T05:20:45;5.10;;;4.33;;
18042;SDS011;9146;48.074;11.968;2022-09-27T05:23:12;6.50;;;4.70;;
18042;SDS011;9146;48.074;11.968;2022-09-27T05:25:39;7.20;;;4.73;;
18042;SDS011;9146;48.074;11.968;2022-09-27T05:28:07;6.20;;;4.80;;
18042;SDS011;9146;48.074;11.968;2022-09-27T05:30:34;6.73;;;4.63;;
18042;SDS011;9146;48.074;11.968;2022-09-27T05:33:01;8.27;;;4.77;;
18042;SDS011;9146;48.074;11.968;2022-09-27T05:35:29;7.07;;;5.20;;
18042;SDS011;9146;48.074;11.968;2022-09-27T05:37:58;8.90;;;5.27;;
18042;SDS011;9146;48.074;11.968;2022-09-27T05:40:25;5.90;;;5.30;;
18042;SDS011;9146;48.074;11.968;2022-09-27T05:42:53;8.00;;;6.27;;
18042;SDS011;9146;48.074;11.968;2022-09-27T05:45:21;7.70;;;5.80;;
18042;SDS011;9146;48.074;11.968;2022-09-27T05:47:52;7.60;;;6.10;;
18042;SDS011;9146;48.074;11.968;2022-09-27T05:50:20;8.80;;;6.57;;
18042;SDS011;9146;48.074;11.968;2022-09-27T05:52:49;11.27;;;5.73;;
18042;SDS011;9146;48.074;11.968;2022-09-27T05:55:16;7.60;;;5.20;;
18042;SDS011;9146;48.074;11.968;2022-09-27T05:57:52;6.83;;;5.00;;
18042;SDS011;9146;48.074;11.968;2022-09-27T06:00:20;7.03;;;5.20;;
18042;SDS011;9146;48.074;11.968;2022-09-27T06:02:51;7.20;;;5.30;;
18042;SDS011;9146;48.074;11.968;2022-09-27T06:05:20;5.07;;;4.53;;
18042;SDS011;9146;48.074;11.968;2022-09-27T06:07:47;4.90;;;4.40;;
18042;SDS011;9146;48.074;11.968;2022-09-27T06:10:16;4.53;;;3.57;;
18042;SDS011;9146;48.074;11.968;2022-09-27T06:12:44;4.10;;;3.70;;
18042;SDS011;9146;48.074;11.968;2022-09-27T06:15:11;10.60;;;3.80;;
18042;SDS011;9146;48.074;11.968;2022-09-27T06:17:38;3.90;;;3.40;;
18042;SDS011;9146;48.074;11.968;2022-09-27T06:20:06;3.80;;;3.50;;
18042;SDS011;9146;48.074;11.968;2022-09-27T06:22:33;4.73;;;3.40;;
18042;SDS011;9146;48.074;11.968;2022-09-27T06:25:01;6.80;;;2.80;;
18042;SDS011;9146;48.074;11.968;2022-09-27T06:27:30;3.63;;;3.27;;
18042;SDS011;9146;48.074;11.968;2022-09-27T06:29:57;4.43;;;3.00;;
18042;SDS011;9146;48.074;11.968;2022-09-27T06:32:24;3.63;;;3.33;;
18042;SDS011;9146;48.074;11.968;2022-09-27T06:34:51;5.20;;;3.77;;
18042;SDS011;9146;48.074;11.968;2022-09-27T06:37:18;3.63;;;3.33;;
18042;SDS011;9146;48.074;11.968;2022-09-27T06:39:45;5.37;;;3.23;;
18042;SDS011;9146;48.074;11.968;2022-09-27T06:42:13;3.10;;;2.80;;
18042;SDS011;9146;48.074;11.968;2022-09-27T06:44:44;4.63;;;3.03;;
18042;SDS011;9146;48.074;11.968;2022-09-27T06:47:14;2.60;;;2.40;;
18042;SDS011;9146;48.074;11.968;2022-09-27T06:49:41;4.07;;;2.63;;
18042;SDS011;9146;48.074;11.968;2022-09-27T06:52:08;4.10;;;2.00;;
18042;SDS011;9146;48.074;11.968;2022-09-27T06:54:35;1.80;;;1.70;;
18042;SDS011;9146;48.074;11.968;2022-09-27T06:57:02;2.47;;;2.27;;
18042;SDS011;9146;48.074;11.968;2022-09-27T06:59:29;3.93;;;2.00;;
18042;SDS011;9146;48.074;11.968;2022-09-27T07:02:16;1.90;;;1.80;;
18042;SDS011;9146;48.074;11.968;2022-09-27T07:04:43;1.57;;;1.47;;
18042;SDS011;9146;48.074;11.968;2022-09-27T07:07:10;2.50;;;1.60;;
18042;SDS011;9146;48.074;11.968;2022-09-27T07:09:37;3.93;;;1.50;;
18042;SDS011;9146;48.074;11.968;2022-09-27T07:12:05;1.73;;;1.60;;
18042;SDS011;9146;48.074;11.968;2022-09-27T07:14:32;2.07;;;1.50;;
18042;SDS011;9146;48.074;11.968;2022-09-27T07:17:00;1.73;;;1.30;;
18042;SDS011;9146;48.074;11.968;2022-09-27T07:19:28;1.47;;;1.37;;
18042;SDS011;9146;48.074;11.968;2022-09-27T07:21:55;1.67;;;1.33;;
18042;SDS011;9146;48.074;11.968;2022-09-27T07:24:22;1.90;;;1.43;;
18042;SDS011;9146;48.074;11.968;2022-09-27T07:26:49;1.43;;;1.37;;
18042;SDS011;9146;48.074;11.968;2022-09-27T07:29:16;3.80;;;1.40;;
18042;SDS011;9146;48.074;11.968;2022-09-27T07:31:43;1.50;;;1.20;;
18042;SDS011;9146;48.074;11.968;2022-09-27T07:34:10;1.17;;;1.13;;
18042;SDS011;9146;48.074;11.968;2022-09-27T07:36:39;2.00;;;1.70;;
18042;SDS011;9146;48.074;11.968;2022-09-27T07:39:06;1.00;;;1.00;;
18042;SDS011;9146;48.074;11.968;2022-09-27T07:41:33;1.47;;;1.20;;
18042;SDS011;9146;48.074;11.968;2022-09-27T07:44:00;1.40;;;1.40;;
18042;SDS011;9146;48.074;11.968;2022-09-27T07:46:28;2.43;;;1.20;;
18042;SDS011;9146;48.074;11.968;2022-09-27T07:48:55;1.70;;;1.30;;
18042;SDS011;9146;48.074;11.968;2022-09-27T07:51:22;1.33;;;1.20;;
18042;SDS011;9146;48.074;11.968;2022-09-27T07:53:51;2.63;;;1.57;;
18042;SDS011;9146;48.074;11.968;2022-09-27T07:56:18;3.93;;;2.00;;
18042;SDS011;9146;48.074;11.968;2022-09-27T07:58:45;1.60;;;1.50;;
18042;SDS011;9146;48.074;11.968;2022-09-27T08:01:12;4.30;;;1.80;;
18042;SDS011;9146;48.074;11.968;2022-09-27T08:03:39;6.00;;;1.63;;
18042;SDS011;9146;48.074;11.968;2022-09-27T08:06:06;3.23;;;1.57;;
18042;SDS011;9146;48.074;11.968;2022-09-27T08:08:33;2.77;;;1.70;;
18042;SDS011;9146;48.074;11.968;2022-09-27T08:11:08;1.90;;;1.70;;
18042;SDS011;9146;48.074;11.968;2022-09-27T08:13:37;1.73;;;1.60;;
18042;SDS011;9146;48.074;11.968;2022-09-27T08:16:05;2.10;;;1.90;;
18042;SDS011;9146;48.074;11.968;2022-09-27T08:18:32;1.97;;;1.77;;
18042;SDS011;9146;48.074;11.968;2022-09-27T08:20:59;1.70;;;1.60;;
18042;SDS011;9146;48.074;11.968;2022-09-27T08:23:26;3.17;;;1.70;;
18042;SDS011;9146;48.074;11.968;2022-09-27T08:25:54;1.93;;;1.57;;
18042;SDS011;9146;48.074;11.968;2022-09-27T08:28:23;3.57;;;1.63;;
18042;SDS011;9146;48.074;11.968;2022-09-27T08:30:51;1.50;;;1.40;;
18042;SDS011;9146;48.074;11.968;2022-09-27T08:33:18;1.00;;;1.00;;
18042;SDS011;9146;48.074;11.968;2022-09-27T08:35:45;2.10;;;0.90;;
18042;SDS011;9146;48.074;11.968;2022-09-27T08:38:12;2.83;;;1.03;;
18042;SDS011;9146;48.074;11.968;2022-09-27T08:40:44;1.10;;;1.07;;
18042;SDS011;9146;48.074;11.968;2022-09-27T08:43:19;0.90;;;0.90;;
18042;SDS011;9146;48.074;11.968;2022-09-27T08:45:58;1.50;;;1.03;;
18042;SDS011;9146;48.074;11.968;2022-09-27T08:48:32;2.20;;;0.80;;
18042;SDS011;9146;48.074;11.968;2022-09-27T08:51:01;3.80;;;0.80;;
18042;SDS011;9146;48.074;11.968;2022-09-27T08:53:31;0.87;;;0.87;;
18042;SDS011;9146;48.074;11.968;2022-09-27T08:56:01;2.20;;;0.90;;
18042;SDS011;9146;48.074;11.968;2022-09-27T08:58:31;1.30;;;0.90;;
18042;SDS011;9146;48.074;11.968;2022-09-27T09:01:01;0.90;;;0.90;;
18042;SDS011;9146;48.074;11.968;2022-09-27T09:03:33;1.27;;;1.17;;
18042;SDS011;9146;48.074;11.968;2022-09-27T09:06:06;4.63;;;1.00;;
18042;SDS011;9146;48.074;11.968;2022-09-27T09:08:45;0.90;;;0.87;;
18042;SDS011;9146;48.074;11.968;2022-09-27T09:11:24;1.07;;;1.07;;
18042;SDS011;9146;48.074;11.968;2022-09-27T09:14:20;1.20;;;1.20;;
18042;SDS011;9146;48.074;11.968;2022-09-27T09:17:01;1.20;;;1.20;;
18042;SDS011;9146;48.074;11.968;2022-09-27T09:19:45;4.83;;;1.63;;
18042;SDS011;9146;48.074;11.968;2022-09-27T09:22:28;1.40;;;1.30;;
18042;SDS011;9146;48.074;11.968;2022-09-27T09:25:10;2.33;;;1.30;;
18042;SDS011;9146;48.074;11.968;2022-09-27T09:27:50;1.37;;;1.27;;
18042;SDS011;9146;48.074;11.968;2022-09-27T09:30:30;1.50;;;1.40;;
18042;SDS011;9146;48.074;11.968;2022-09-27T09:33:18;2.20;;;1.30;;
18042;SDS011;9146;48.074;11.968;2022-09-27T09:35:50;1.20;;;1.10;;
18042;SDS011;9146;48.074;11.968;2022-09-27T09:38:24;1.47;;;1.37;;
18042;SDS011;9146;48.074;11.968;2022-09-27T09:40:59;1.47;;;1.33;;
18042;SDS011;9146;48.074;11.968;2022-09-27T09:43:32;1.33;;;1.23;;
18042;SDS011;9146;48.074;11.968;2022-09-27T09:46:06;1.50;;;1.30;;
18042;SDS011;9146;48.074;11.968;2022-09-27T09:48:38;1.00;;;1.00;;
18042;SDS011;9146;48.074;11.968;2022-09-27T09:51:10;1.03;;;1.03;;
18042;SDS011;9146;48.074;11.968;2022-09-27T09:53:44;3.57;;;1.10;;
18042;SDS011;9146;48.074;11.968;2022-09-27T09:56:18;1.17;;;0.97;;
18042;SDS011;9146;48.074;11.968;2022-09-27T09:58:49;1.10;;;1.10;;
18042;SDS011;9146;48.074;11.968;2022-09-27T10:01:22;1.47;;;1.37;;
18042;SDS011;9146;48.074;11.968;2022-09-27T10:03:53;1.03;;;1.03;;
18042;SDS011;9146;48.074;11.968;2022-09-27T10:06:21;1.17;;;1.10;;
18042;SDS011;9146;48.074;11.968;2022-09-27T10:08:49;1.10;;;1.00;;
18042;SDS011;9146;48.074;11.968;2022-09-27T10:11:19;1.10;;;1.10;;
18042;SDS011;9146;48.074;11.968;2022-09-27T10:13:49;1.73;;;0.80;;
18042;SDS011;9146;48.074;11.968;2022-09-27T10:16:17;0.83;;;0.83;;
18042;SDS011;9146;48.074;11.968;2022-09-27T10:18:46;1.07;;;0.90;;
18042;SDS011;9146;48.074;11.968;2022-09-27T10:21:17;2.97;;;1.20;;
18042;SDS011;9146;48.074;11.968;2022-09-27T10:24:04;1.30;;;0.90;;
18042;SDS011;9146;48.074;11.968;2022-09-27T10:26:34;1.50;;;0.90;;
18042;SDS011;9146;48.074;11.968;2022-09-27T10:29:15;1.20;;;1.10;;
18042;SDS011;9146;48.074;11.968;2022-09-27T10:31:50;0.87;;;0.87;;
18042;SDS011;9146;48.074;11.968;2022-09-27T10:34:26;0.80;;;0.80;;
18042;SDS011;9146;48.074;11.968;2022-09-27T10:37:02;1.00;;;0.90;;
18042;SDS011;9146;48.074;11.968;2022-09-27T10:39:32;1.33;;;0.90;;
18042;SDS011;9146;48.074;11.968;2022-09-27T10:42:01;0.90;;;0.90;;
18042;SDS011;9146;48.074;11.968;2022-09-27T10:44:29;2.10;;;0.90;;
18042;SDS011;9146;48.074;11.968;2022-09-27T10:46:57;1.43;;;1.33;;
18042;SDS011;9146;48.074;11.968;2022-09-27T10:49:28;0.80;;;0.80;;
18042;SDS011;9146;48.074;11.968;2022-09-27T10:51:58;0.80;;;0.80;;
18042;SDS011;9146;48.074;11.968;2022-09-27T10:54:27;0.70;;;0.70;;
18042;SDS011;9146;48.074;11.968;2022-09-27T10:56:57;1.60;;;0.80;;
18042;SDS011;9146;48.074;11.968;2022-09-27T10:59:28;0.80;;;0.80;;
18042;SDS011;9146;48.074;11.968;2022-09-27T11:01:58;0.80;;;0.80;;
18042;SDS011;9146;48.074;11.968;2022-09-27T11:04:28;1.03;;;0.93;;
18042;SDS011;9146;48.074;11.968;2022-09-27T11:07:07;3.80;;;1.00;;
18042;SDS011;9146;48.074;11.968;2022-09-27T11:09:46;1.20;;;1.10;;
18042;SDS011;9146;48.074;11.968;2022-09-27T11:12:15;0.90;;;0.90;;
18042;SDS011;9146;48.074;11.968;2022-09-27T11:14:50;1.43;;;1.33;;
18042;SDS011;9146;48.074;11.968;2022-09-27T11:17:23;1.70;;;1.10;;
18042;SDS011;9146;48.074;11.968;2022-09-27T11:20:06;5.50;;;1.30;;
18042;SDS011;9146;48.074;11.968;2022-09-27T11:25:48;1.50;;;1.40;;
18042;SDS011;9146;48.074;11.968;2022-09-27T11:28:26;2.00;;;1.20;;
18042;SDS011;9146;48.074;11.968;2022-09-27T11:31:04;1.40;;;1.13;;
18042;SDS011;9146;48.074;11.968;2022-09-27T11:33:41;1.57;;;0.83;;
18042;SDS011;9146;48.074;11.968;2022-09-27T11:36:21;1.87;;;1.10;;
18042;SDS011;9146;48.074;11.968;2022-09-27T11:39:01;1.87;;;1.10;;
18042;SDS011;9146;48.074;11.968;2022-09-27T11:41:43;1.03;;;0.90;;
18042;SDS011;9146;48.074;11.968;2022-09-27T11:44:26;1.37;;;1.00;;
18042;SDS011;9146;48.074;11.968;2022-09-27T11:47:15;0.90;;;0.90;;
18042;SDS011;9146;48.074;11.968;2022-09-27T11:52:58;1.53;;;1.00;;
18042;SDS011;9146;48.074;11.968;2022-09-27T11:55:36;0.80;;;0.80;;
18042;SDS011;9146;48.074;11.968;2022-09-27T11:58:11;0.90;;;0.90;;
18042;SDS011;9146;48.074;11.968;2022-09-27T12:00:50;1.17;;;1.00;;
18042;SDS011;9146;48.074;11.968;2022-09-27T12:06:35;1.00;;;0.90;;
18042;SDS011;9146;48.074;11.968;2022-09-27T12:09:13;0.70;;;0.70;;
18042;SDS011;9146;48.074;11.968;2022-09-27T12:11:44;0.80;;;0.80;;
18042;SDS011;9146;48.074;11.968;2022-09-27T12:14:16;0.87;;;0.87;;
18042;SDS011;9146;48.074;11.968;2022-09-27T12:16:46;2.93;;;1.10;;
18042;SDS011;9146;48.074;11.968;2022-09-27T12:19:17;0.80;;;0.80;;
18042;SDS011;9146;48.074;11.968;2022-09-27T12:21:48;1.47;;;1.37;;
18042;SDS011;9146;48.074;11.968;2022-09-27T12:24:19;1.20;;;1.10;;
18042;SDS011;9146;48.074;11.968;2022-09-27T12:26:47;1.10;;;1.00;;
18042;SDS011;9146;48.074;11.968;2022-09-27T12:29:18;1.20;;;1.10;;
18042;SDS011;9146;48.074;11.968;2022-09-27T12:31:50;0.83;;;0.83;;
18042;SDS011;9146;48.074;11.968;2022-09-27T12:34:25;0.73;;;0.70;;
18042;SDS011;9146;48.074;11.968;2022-09-27T12:37:02;0.80;;;0.80;;
18042;SDS011;9146;48.074;11.968;2022-09-27T12:39:39;1.67;;;0.90;;
18042;SDS011;9146;48.074;11.968;2022-09-27T12:42:12;0.77;;;0.77;;
18042;SDS011;9146;48.074;11.968;2022-09-27T12:44:43;1.00;;;0.90;;
18042;SDS011;9146;48.074;11.968;2022-09-27T12:47:12;1.27;;;0.70;;
18042;SDS011;9146;48.074;11.968;2022-09-27T12:49:48;0.80;;;0.80;;
18042;SDS011;9146;48.074;11.968;2022-09-27T12:52:25;0.70;;;0.70;;
18042;SDS011;9146;48.074;11.968;2022-09-27T12:58:16;1.03;;;0.93;;
18042;SDS011;9146;48.074;11.968;2022-09-27T13:01:08;2.40;;;0.90;;
18042;SDS011;9146;48.074;11.968;2022-09-27T13:03:52;1.37;;;0.97;;
18042;SDS011;9146;48.074;11.968;2022-09-27T13:06:33;0.80;;;0.80;;
18042;SDS011;9146;48.074;11.968;2022-09-27T13:09:20;1.20;;;0.80;;
18042;SDS011;9146;48.074;11.968;2022-09-27T13:11:57;1.03;;;1.00;;
18042;SDS011;9146;48.074;11.968;2022-09-27T13:14:38;0.80;;;0.80;;
18042;SDS011;9146;48.074;11.968;2022-09-27T13:23:03;1.43;;;0.93;;
18042;SDS011;9146;48.074;11.968;2022-09-27T13:25:53;3.13;;;1.20;;
18042;SDS011;9146;48.074;11.968;2022-09-27T13:28:31;1.97;;;1.30;;
18042;SDS011;9146;48.074;11.968;2022-09-27T13:31:02;2.30;;;1.00;;
18042;SDS011;9146;48.074;11.968;2022-09-27T13:33:40;1.37;;;0.97;;
18042;SDS011;9146;48.074;11.968;2022-09-27T13:36:17;1.47;;;1.37;;
18042;SDS011;9146;48.074;11.968;2022-09-27T13:38:54;1.73;;;0.97;;
18042;SDS011;9146;48.074;11.968;2022-09-27T13:41:51;1.20;;;0.90;;
18042;SDS011;9146;48.074;11.968;2022-09-27T13:44:30;1.50;;;1.00;;
18042;SDS011;9146;48.074;11.968;2022-09-27T13:47:12;1.37;;;1.03;;
18042;SDS011;9146;48.074;11.968;2022-09-27T13:49:54;0.90;;;0.90;;
18042;SDS011;9146;48.074;11.968;2022-09-27T13:52:28;2.03;;;1.07;;
18042;SDS011;9146;48.074;11.968;2022-09-27T13:54:58;2.30;;;1.10;;
18042;SDS011;9146;48.074;11.968;2022-09-27T13:57:44;1.33;;;1.10;;
18042;SDS011;9146;48.074;11.968;2022-09-27T14:00:17;1.23;;;1.13;;
18042;SDS011;9146;48.074;11.968;2022-09-27T14:02:54;3.37;;;1.00;;
18042;SDS011;9146;48.074;11.968;2022-09-27T14:05:26;2.23;;;1.00;;
18042;SDS011;9146;48.074;11.968;2022-09-27T14:07:58;1.00;;;1.00;;
18042;SDS011;9146;48.074;11.968;2022-09-27T14:10:27;1.53;;;1.10;;
18042;SDS011;9146;48.074;11.968;2022-09-27T14:12:56;1.43;;;1.10;;
18042;SDS011;9146;48.074;11.968;2022-09-27T14:15:26;2.33;;;1.20;;
18042;SDS011;9146;48.074;11.968;2022-09-27T14:17:56;1.57;;;1.10;;
18042;SDS011;9146;48.074;11.968;2022-09-27T14:20:31;1.23;;;0.90;;
18042;SDS011;9146;48.074;11.968;2022-09-27T14:22:59;1.37;;;0.90;;
18042;SDS011;9146;48.074;11.968;2022-09-27T14:25:27;1.07;;;0.97;;
18042;SDS011;9146;48.074;11.968;2022-09-27T14:27:54;0.90;;;0.90;;
18042;SDS011;9146;48.074;11.968;2022-09-27T14:30:23;3.00;;;1.30;;
18042;SDS011;9146;48.074;11.968;2022-09-27T14:32:52;1.20;;;1.10;;
18042;SDS011;9146;48.074;11.968;2022-09-27T14:35:24;1.47;;;1.20;;
18042;SDS011;9146;48.074;11.968;2022-09-27T14:38:10;1.00;;;0.87;;
18042;SDS011;9146;48.074;11.968;2022-09-27T14:40:40;1.10;;;1.00;;
18042;SDS011;9146;48.074;11.968;2022-09-27T14:43:12;1.03;;;0.93;;
18042;SDS011;9146;48.074;11.968;2022-09-27T14:45:42;1.50;;;1.33;;
18042;SDS011;9146;48.074;11.968;2022-09-27T14:48:17;0.83;;;0.83;;
18042;SDS011;9146;48.074;11.968;2022-09-27T14:50:57;1.40;;;0.90;;
18042;SDS011;9146;48.074;11.968;2022-09-27T14:53:28;0.80;;;0.80;;
18042;SDS011;9146;48.074;11.968;2022-09-27T14:55:56;0.70;;;0.70;;
18042;SDS011;9146;48.074;11.968;2022-09-27T14:58:23;0.90;;;0.90;;
18042;SDS011;9146;48.074;11.968;2022-09-27T15:00:52;2.07;;;0.90;;
18042;SDS011;9146;48.074;11.968;2022-09-27T15:03:21;6.87;;;0.90;;
18042;SDS011;9146;48.074;11.968;2022-09-27T15:05:55;0.80;;;0.80;;
18042;SDS011;9146;48.074;11.968;2022-09-27T15:08:24;0.97;;;0.97;;
18042;SDS011;9146;48.074;11.968;2022-09-27T15:10:54;0.80;;;0.80;;
18042;SDS011;9146;48.074;11.968;2022-09-27T15:13:22;3.17;;;0.93;;
18042;SDS011;9146;48.074;11.968;2022-09-27T15:15:51;2.30;;;1.10;;
18042;SDS011;9146;48.074;11.968;2022-09-27T15:18:32;0.73;;;0.73;;
18042;SDS011;9146;48.074;11.968;2022-09-27T15:21:06;1.90;;;0.93;;
18042;SDS011;9146;48.074;11.968;2022-09-27T15:23:35;1.07;;;0.83;;
18042;SDS011;9146;48.074;11.968;2022-09-27T15:26:06;1.87;;;1.40;;
18042;SDS011;9146;48.074;11.968;2022-09-27T15:28:36;1.10;;;1.00;;
18042;SDS011;9146;48.074;11.968;2022-09-27T15:31:07;1.13;;;1.03;;
18042;SDS011;9146;48.074;11.968;2022-09-27T15:33:35;1.70;;;1.10;;
18042;SDS011;9146;48.074;11.968;2022-09-27T15:36:03;2.30;;;1.30;;
18042;SDS011;9146;48.074;11.968;2022-09-27T15:38:33;0.87;;;0.87;;